Time;durP1;ratioP1;P1;durP2;ratioP2;P2;SDS_P1;SDS_P2;PMS_P1;PMS_P2;Temp;Humidity;BMP_temperature;BMP_pressure;BME280_temperature;BME280_humidity;BME280_pressure;Samples;Min_cycle;Max_cycle;Signal;HPM_P1;HPM_P2
2023/06/06 00:00:22;;;;;;;22.83;17.30;;;17.00;99.90;;;;;;5029303;28;20049;-77
2023/06/06 00:02:50;;;;;;;25.08;16.80;;;17.00;99.90;;;;;;5029708;28;20049;-77
2023/06/06 00:05:21;;;;;;;23.27;17.67;;;17.00;99.90;;;;;;5009777;28;20892;-77
2023/06/06 00:07:49;;;;;;;26.20;17.15;;;17.00;99.90;;;;;;5009050;28;20046;-77
2023/06/06 00:10:17;;;;;;;25.38;16.70;;;17.00;99.90;;;;;;5010656;28;20053;-77
2023/06/06 00:12:47;;;;;;;21.10;15.50;;;17.00;99.90;;;;;;5009670;28;20042;-77
2023/06/06 00:15:16;;;;;;;23.00;16.40;;;17.00;99.90;;;;;;5010433;28;20046;-78
2023/06/06 00:17:44;;;;;;;25.00;17.75;;;17.00;99.90;;;;;;5008810;28;20413;-78
2023/06/06 00:20:13;;;;;;;29.55;18.67;;;17.00;99.90;;;;;;5009183;28;20144;-77
2023/06/06 00:22:41;;;;;;;26.13;17.98;;;16.90;99.90;;;;;;5010183;28;20046;-76
2023/06/06 00:25:09;;;;;;;24.40;17.88;;;17.00;99.90;;;;;;5010056;28;20050;-77
2023/06/06 00:27:37;;;;;;;24.58;18.05;;;17.00;99.90;;;;;;5009468;28;20505;-76
2023/06/06 00:30:08;;;;;;;25.10;17.10;;;17.00;99.90;;;;;;5009761;28;20046;-77
2023/06/06 00:32:35;;;;;;;22.30;17.45;;;16.90;99.90;;;;;;5010232;28;20072;-76
2023/06/06 00:35:03;;;;;;;23.67;16.40;;;16.90;99.90;;;;;;5009385;28;20520;-76
2023/06/06 00:37:30;;;;;;;22.40;16.25;;;16.90;99.90;;;;;;5010351;28;20603;-75
2023/06/06 00:39:58;;;;;;;22.83;16.08;;;16.80;99.90;;;;;;5008310;28;20050;-76
2023/06/06 00:42:25;;;;;;;19.20;14.50;;;16.90;99.90;;;;;;5008960;28;20038;-76
2023/06/06 00:44:52;;;;;;;19.88;14.82;;;16.80;99.90;;;;;;5008796;28;20118;-75
2023/06/06 00:47:21;;;;;;;20.10;15.32;;;16.80;99.90;;;;;;5008801;28;20045;-76
2023/06/06 00:49:50;;;;;;;24.40;15.20;;;16.90;99.90;;;;;;5009616;28;20526;-75
2023/06/06 00:52:18;;;;;;;19.77;14.88;;;16.90;99.90;;;;;;5010110;28;20132;-75
2023/06/06 00:54:47;;;;;;;20.27;13.45;;;16.80;99.90;;;;;;5030382;28;20440;-75
2023/06/06 00:57:16;;;;;;;19.17;13.95;;;16.80;99.90;;;;;;5020071;28;20414;-76
2023/06/06 00:59:44;;;;;;;17.63;13.45;;;16.80;99.90;;;;;;5001104;28;20030;-76
2023/06/06 01:02:17;;;;;;;17.25;13.15;;;16.80;99.90;;;;;;4997631;28;20134;-76
2023/06/06 01:04:46;;;;;;;18.33;12.82;;;16.80;99.90;;;;;;5012219;28;20520;-76
2023/06/06 01:07:16;;;;;;;17.13;12.45;;;16.80;99.90;;;;;;5027963;28;20071;-76
2023/06/06 01:09:48;;;;;;;18.00;12.75;;;16.80;99.90;;;;;;5011856;28;20095;-76
2023/06/06 01:12:25;;;;;;;23.85;17.73;;;16.80;99.90;;;;;;5025924;28;20454;-76
2023/06/06 01:15:01;;;;;;;27.25;17.48;;;16.80;99.90;;;;;;5013807;28;20445;-76
2023/06/06 01:17:29;;;;;;;29.08;21.17;;;16.80;99.90;;;;;;5027222;28;20125;-76
2023/06/06 01:19:59;;;;;;;21.80;16.02;;;16.80;99.90;;;;;;5013672;28;20140;-75
2023/06/06 01:22:29;;;;;;;34.33;25.73;;;16.80;99.90;;;;;;5027251;28;20038;-75
2023/06/06 01:24:58;;;;;;;18.90;13.57;;;16.80;99.90;;;;;;5024214;28;20049;-76
2023/06/06 01:27:27;;;;;;;23.10;15.80;;;16.80;99.90;;;;;;5026133;28;20034;-76
2023/06/06 01:29:55;;;;;;;24.08;14.30;;;16.80;99.90;;;;;;5012029;28;20068;-76
2023/06/06 01:32:27;;;;;;;16.17;13.02;;;16.90;99.90;;;;;;5012485;28;20537;-76
2023/06/06 01:35:01;;;;;;;17.55;11.63;;;16.80;99.90;;;;;;5026150;28;20060;-77
2023/06/06 01:37:45;;;;;;;15.85;12.88;;;16.80;99.90;;;;;;5015059;28;20468;-74
2023/06/06 01:40:15;;;;;;;17.35;12.63;;;16.80;99.90;;;;;;5025236;28;20042;-76
2023/06/06 01:42:45;;;;;;;17.50;11.90;;;16.80;99.90;;;;;;5011805;28;20038;-76
2023/06/06 01:45:15;;;;;;;17.55;10.82;;;16.80;99.90;;;;;;5011695;28;20037;-74
2023/06/06 01:47:44;;;;;;;18.33;12.18;;;16.80;99.90;;;;;;5011755;28;20132;-77
2023/06/06 01:50:12;;;;;;;17.88;11.77;;;16.80;99.90;;;;;;5026229;28;20041;-76
2023/06/06 01:52:41;;;;;;;20.13;11.20;;;16.80;99.90;;;;;;5010950;28;20448;-76
2023/06/06 01:55:10;;;;;;;16.48;11.57;;;16.70;99.90;;;;;;5010437;28;20053;-76
2023/06/06 01:57:37;;;;;;;15.80;11.77;;;16.80;99.90;;;;;;5012401;28;20044;-76
2023/06/06 02:00:08;;;;;;;17.33;11.43;;;16.70;99.90;;;;;;5010506;28;20049;-76
2023/06/06 02:02:41;;;;;;;14.45;11.65;;;16.70;99.90;;;;;;5026664;28;20049;-76
2023/06/06 02:05:09;;;;;;;16.75;12.45;;;16.70;99.90;;;;;;5025462;28;20107;-76
2023/06/06 02:07:37;;;;;;;14.05;11.43;;;16.70;99.90;;;;;;5010270;28;20073;-76
2023/06/06 02:10:09;;;;;;;16.40;12.57;;;16.70;99.90;;;;;;5025937;28;20041;-75
2023/06/06 02:12:38;;;;;;;18.17;12.20;;;16.70;99.90;;;;;;5010785;28;20145;-77
2023/06/06 02:15:06;;;;;;;14.70;11.60;;;16.70;99.90;;;;;;5028002;28;20049;-76
2023/06/06 02:17:34;;;;;;;16.08;11.55;;;16.70;99.90;;;;;;5018825;28;20122;-76
2023/06/06 02:20:01;;;;;;;15.30;11.93;;;16.70;99.90;;;;;;5024639;28;20486;-76
2023/06/06 02:22:29;;;;;;;15.68;12.13;;;16.70;99.90;;;;;;5021154;28;20132;-76
2023/06/06 02:24:56;;;;;;;15.20;11.90;;;16.70;99.90;;;;;;5012429;28;20047;-76
2023/06/06 02:27:26;;;;;;;15.27;11.30;;;16.70;99.90;;;;;;5028009;28;20076;-76
2023/06/06 02:29:53;;;;;;;18.13;11.60;;;16.70;99.90;;;;;;5013549;28;20068;-76
2023/06/06 02:32:21;;;;;;;16.20;11.60;;;16.70;99.90;;;;;;5010979;28;20132;-76
2023/06/06 02:34:48;;;;;;;14.52;11.20;;;16.60;99.90;;;;;;5025576;28;20050;-76
2023/06/06 02:37:16;;;;;;;13.52;10.90;;;16.70;99.90;;;;;;5025397;28;20029;-76
2023/06/06 02:39:43;;;;;;;14.77;11.27;;;16.70;99.90;;;;;;5009592;28;20124;-76
2023/06/06 02:42:11;;;;;;;14.55;11.05;;;16.70;99.90;;;;;;5026197;28;20100;-76
2023/06/06 02:44:40;;;;;;;12.40;10.35;;;16.70;99.90;;;;;;5010938;28;20100;-76
2023/06/06 02:47:08;;;;;;;15.68;10.38;;;16.70;99.90;;;;;;5024298;28;20045;-76
2023/06/06 02:49:36;;;;;;;18.25;11.02;;;16.60;99.90;;;;;;5009462;28;20493;-75
2023/06/06 02:52:03;;;;;;;17.70;11.77;;;16.70;99.90;;;;;;5012235;28;20148;-76
2023/06/06 02:54:31;;;;;;;15.05;11.35;;;16.60;99.90;;;;;;5025676;28;20046;-76
2023/06/06 02:56:58;;;;;;;16.20;11.98;;;16.60;99.90;;;;;;5011592;28;20417;-76
2023/06/06 02:59:26;;;;;;;14.35;11.20;;;16.70;99.90;;;;;;5024912;28;20114;-76
2023/06/06 03:01:55;;;;;;;17.35;11.73;;;16.70;99.90;;;;;;5010754;28;20779;-76
2023/06/06 03:04:22;;;;;;;14.45;10.80;;;16.70;99.90;;;;;;5025107;28;20124;-76
2023/06/06 03:06:50;;;;;;;19.40;11.98;;;16.60;99.90;;;;;;5005979;28;20048;-75
2023/06/06 03:09:19;;;;;;;17.67;11.52;;;16.70;99.90;;;;;;5006638;28;20410;-76
2023/06/06 03:11:47;;;;;;;17.20;11.57;;;16.60;99.90;;;;;;4991387;28;20042;-75
2023/06/06 03:14:16;;;;;;;16.90;11.48;;;16.60;99.90;;;;;;5006330;28;20049;-74
2023/06/06 03:16:43;;;;;;;17.65;13.45;;;16.60;99.90;;;;;;4995737;28;20053;-75
2023/06/06 03:19:14;;;;;;;18.50;13.02;;;16.60;99.90;;;;;;5006523;28;20046;-76
2023/06/06 03:21:43;;;;;;;15.93;12.50;;;16.60;99.90;;;;;;4992415;28;20038;-76
2023/06/06 03:24:13;;;;;;;18.42;12.57;;;16.60;99.90;;;;;;4992590;28;20038;-76
2023/06/06 03:26:46;;;;;;;17.08;12.57;;;16.60;99.90;;;;;;4991306;28;20073;-75
2023/06/06 03:29:15;;;;;;;20.05;12.50;;;16.60;99.90;;;;;;5012581;28;20046;-75
2023/06/06 03:31:44;;;;;;;17.95;12.45;;;16.60;99.90;;;;;;4995012;28;20066;-76
2023/06/06 03:34:12;;;;;;;16.63;14.00;;;16.60;99.90;;;;;;4998041;28;20049;-76
2023/06/06 03:36:43;;;;;;;17.85;13.10;;;16.60;99.90;;;;;;4999159;28;20042;-76
2023/06/06 03:39:12;;;;;;;13.88;12.38;;;16.60;99.90;;;;;;5000087;28;20050;-75
2023/06/06 03:41:40;;;;;;;21.63;14.70;;;16.60;99.90;;;;;;5000904;28;20529;-76
2023/06/06 03:44:08;;;;;;;19.63;15.40;;;16.60;99.90;;;;;;4999854;28;20133;-76
2023/06/06 03:46:35;;;;;;;23.75;15.48;;;16.70;99.90;;;;;;5008589;28;20146;-76
2023/06/06 03:49:03;;;;;;;24.33;16.02;;;16.60;99.90;;;;;;4999295;28;20046;-75
2023/06/06 03:51:30;;;;;;;22.92;15.18;;;16.60;99.90;;;;;;5011215;28;20141;-75
2023/06/06 03:53:59;;;;;;;19.98;14.30;;;16.60;99.90;;;;;;5000105;28;20387;-75
2023/06/06 03:56:27;;;;;;;21.42;15.43;;;16.70;99.90;;;;;;5010335;28;20080;-75
2023/06/06 03:58:54;;;;;;;19.42;14.65;;;16.60;99.90;;;;;;5008699;28;20061;-75
2023/06/06 04:01:22;;;;;;;16.25;12.73;;;16.70;99.90;;;;;;4999482;28;20033;-75
2023/06/06 04:03:49;;;;;;;15.23;12.40;;;16.70;99.90;;;;;;4999411;28;20045;-74
2023/06/06 04:06:16;;;;;;;15.13;11.27;;;16.70;99.90;;;;;;4995251;28;20136;-74
2023/06/06 04:08:44;;;;;;;15.40;11.70;;;16.70;99.90;;;;;;4992597;28;20066;-74
2023/06/06 04:11:15;;;;;;;18.95;12.93;;;16.70;99.90;;;;;;5007815;28;20054;-75
2023/06/06 04:13:43;;;;;;;17.25;12.80;;;16.70;99.90;;;;;;5007212;28;20046;-73
2023/06/06 04:16:11;;;;;;;15.50;12.68;;;16.70;99.90;;;;;;5008252;28;20041;-73
2023/06/06 04:18:38;;;;;;;18.77;13.45;;;16.70;99.90;;;;;;4993246;28;20410;-74
2023/06/06 04:21:06;;;;;;;18.15;12.68;;;16.70;99.90;;;;;;4992658;28;20390;-74
2023/06/06 04:23:34;;;;;;;15.60;13.48;;;16.70;99.90;;;;;;5007092;28;20042;-74
2023/06/06 04:26:02;;;;;;;21.45;13.00;;;16.70;99.90;;;;;;5009040;28;20516;-75
2023/06/06 04:28:31;;;;;;;16.40;12.57;;;16.70;99.90;;;;;;5008790;28;20497;-75
2023/06/06 04:30:59;;;;;;;14.85;13.23;;;16.70;99.90;;;;;;4993222;28;20120;-74
2023/06/06 04:33:30;;;;;;;16.98;12.70;;;16.80;99.90;;;;;;5009180;28;20046;-74
2023/06/06 04:36:00;;;;;;;17.88;13.60;;;16.90;99.90;;;;;;4991868;28;20041;-75
2023/06/06 04:38:29;;;;;;;18.00;11.35;;;16.80;99.90;;;;;;5008335;28;20092;-75
2023/06/06 04:41:01;;;;;;;15.32;11.90;;;16.90;99.90;;;;;;4992258;28;20045;-75
2023/06/06 04:43:28;;;;;;;14.63;11.23;;;16.90;99.90;;;;;;5008112;28;20045;-75
2023/06/06 04:46:00;;;;;;;17.50;11.57;;;16.90;99.90;;;;;;4993189;28;20038;-76
2023/06/06 04:48:28;;;;;;;16.55;12.10;;;16.90;99.90;;;;;;5009048;28;20552;-74
2023/06/06 04:50:56;;;;;;;17.48;12.15;;;16.90;99.90;;;;;;4991566;28;20056;-75
2023/06/06 04:53:25;;;;;;;16.40;10.82;;;17.00;99.90;;;;;;5008506;28;20052;-74
2023/06/06 04:55:53;;;;;;;19.45;10.60;;;16.90;99.90;;;;;;5004471;28;20525;-74
2023/06/06 04:58:21;;;;;;;15.57;10.45;;;17.00;99.90;;;;;;5008003;28;20496;-75
2023/06/06 05:00:50;;;;;;;12.73;10.00;;;17.00;99.90;;;;;;5007831;28;20097;-75
2023/06/06 05:03:20;;;;;;;12.68;9.65;;;17.00;99.90;;;;;;5007981;28;20053;-75
2023/06/06 05:05:49;;;;;;;14.82;9.82;;;17.10;99.90;;;;;;5024016;28;20413;-75
2023/06/06 05:08:16;;;;;;;15.80;10.77;;;17.10;99.90;;;;;;5036011;28;20045;-76
2023/06/06 05:10:44;;;;;;;14.35;10.32;;;17.10;99.90;;;;;;5038173;28;20041;-78
2023/06/06 05:13:11;;;;;;;15.65;10.70;;;17.10;99.90;;;;;;5039883;28;20067;-76
2023/06/06 05:15:39;;;;;;;16.58;10.88;;;17.20;99.90;;;;;;5038456;28;20410;-76
2023/06/06 05:18:06;;;;;;;16.33;13.13;;;17.20;99.90;;;;;;5034457;28;20064;-74
2023/06/06 05:20:35;;;;;;;15.30;10.98;;;17.20;99.90;;;;;;5039120;28;20122;-75
2023/06/06 05:23:04;;;;;;;14.07;11.52;;;17.20;99.90;;;;;;5038403;28;21215;-77
2023/06/06 05:25:32;;;;;;;14.82;11.48;;;17.30;99.90;;;;;;5039376;28;20037;-75
2023/06/06 05:28:00;;;;;;;13.68;11.27;;;17.30;99.90;;;;;;5037033;28;20148;-76
2023/06/06 05:30:27;;;;;;;14.90;10.32;;;17.40;99.90;;;;;;5039702;28;20387;-75
2023/06/06 05:32:55;;;;;;;14.52;10.35;;;17.50;99.90;;;;;;5040261;28;20052;-75
2023/06/06 05:35:22;;;;;;;14.05;12.55;;;17.60;99.90;;;;;;5038739;28;20471;-77
2023/06/06 05:37:51;;;;;;;11.50;9.20;;;17.80;99.90;;;;;;5041583;28;20068;-75
2023/06/06 05:40:18;;;;;;;19.60;12.45;;;18.00;99.90;;;;;;5043754;28;20037;-77
2023/06/06 05:42:46;;;;;;;13.70;9.93;;;18.10;99.90;;;;;;5041059;28;20049;-76
2023/06/06 05:45:13;;;;;;;14.07;10.00;;;18.20;99.90;;;;;;5048071;28;20515;-76
2023/06/06 05:47:40;;;;;;;12.25;9.30;;;18.30;99.90;;;;;;5053644;28;20051;-76
2023/06/06 05:50:08;;;;;;;15.85;11.25;;;18.40;99.90;;;;;;5047981;28;20131;-76
2023/06/06 05:52:37;;;;;;;14.05;9.80;;;18.40;99.90;;;;;;5022789;28;20050;-76
2023/06/06 05:55:10;;;;;;;11.90;8.90;;;18.40;99.90;;;;;;5046741;28;20532;-76
2023/06/06 05:57:37;;;;;;;14.40;10.10;;;18.50;99.90;;;;;;5049110;28;20045;-77
2023/06/06 06:00:08;;;;;;;10.48;8.45;;;18.50;99.90;;;;;;5047553;28;20037;-75
2023/06/06 06:02:41;;;;;;;14.82;12.30;;;18.60;99.90;;;;;;5047813;28;20107;-76
2023/06/06 06:05:09;;;;;;;23.63;19.55;;;18.60;99.90;;;;;;5045542;28;20484;-75
2023/06/06 06:07:36;;;;;;;16.50;9.63;;;18.70;99.90;;;;;;5038426;28;20041;-75
2023/06/06 06:10:06;;;;;;;12.98;9.10;;;18.70;99.90;;;;;;5028142;28;20054;-76
2023/06/06 06:12:34;;;;;;;15.90;11.25;;;18.80;99.90;;;;;;5028079;28;20486;-76
2023/06/06 06:15:02;;;;;;;13.88;10.98;;;18.80;99.90;;;;;;5027494;28;20072;-75
2023/06/06 06:17:29;;;;;;;18.63;13.13;;;18.80;99.90;;;;;;5026539;28;20065;-75
2023/06/06 06:19:56;;;;;;;40.08;21.10;;;18.90;99.90;;;;;;5027632;28;20038;-76
2023/06/06 06:22:24;;;;;;;23.60;17.85;;;19.00;99.90;;;;;;5027876;28;20040;-76
2023/06/06 06:24:52;;;;;;;16.52;10.63;;;19.10;99.90;;;;;;5028026;28;20453;-75
2023/06/06 06:27:21;;;;;;;22.20;11.75;;;19.20;99.90;;;;;;5027167;28;20120;-75
2023/06/06 06:29:48;;;;;;;29.83;16.05;;;19.30;99.90;;;;;;5018989;28;20390;-75
2023/06/06 06:32:17;;;;;;;20.20;10.77;;;19.40;99.90;;;;;;5009004;28;20289;-76
2023/06/06 06:34:44;;;;;;;14.65;9.38;;;19.40;99.90;;;;;;5006974;28;20124;-77
2023/06/06 06:37:12;;;;;;;16.17;10.38;;;19.60;99.90;;;;;;5008897;28;20038;-75
2023/06/06 06:39:39;;;;;;;12.85;9.00;;;19.70;99.90;;;;;;5009284;28;20063;-76
2023/06/06 06:42:07;;;;;;;16.85;12.50;;;19.90;99.90;;;;;;5026411;28;20600;-76
2023/06/06 06:44:49;;;;;;;21.98;15.75;;;20.10;99.90;;;;;;5010261;28;20046;-77
2023/06/06 06:47:16;;;;;;;13.25;10.50;;;20.10;99.90;;;;;;5007842;28;20045;-76
2023/06/06 06:49:44;;;;;;;21.27;14.45;;;20.20;99.90;;;;;;5025158;28;20040;-75
2023/06/06 06:52:12;;;;;;;16.88;10.25;;;20.30;99.90;;;;;;5026337;28;20227;-75
2023/06/06 06:54:48;;;;;;;17.05;11.52;;;20.50;99.90;;;;;;5025369;28;20041;-76
2023/06/06 06:57:19;;;;;;;16.08;9.98;;;20.80;99.90;;;;;;5024866;28;20069;-75
2023/06/06 06:59:49;;;;;;;16.38;9.85;;;21.20;99.90;;;;;;5023332;28;20128;-75
2023/06/06 07:02:18;;;;;;;22.48;10.60;;;21.60;99.90;;;;;;5008903;28;20374;-75
2023/06/06 07:04:46;;;;;;;22.17;13.43;;;21.90;99.90;;;;;;5025355;28;20053;-76
2023/06/06 07:07:15;;;;;;;31.70;13.57;;;22.30;99.90;;;;;;5025918;28;20049;-75
2023/06/06 07:09:43;;;;;;;16.77;11.50;;;22.60;99.90;;;;;;5025101;28;20049;-76
2023/06/06 07:12:11;;;;;;;15.43;11.23;;;22.70;99.90;;;;;;5010105;28;20042;-76
2023/06/06 07:14:39;;;;;;;14.38;10.18;;;22.90;99.90;;;;;;5023894;28;20060;-76
2023/06/06 07:17:08;;;;;;;14.25;10.35;;;23.00;99.90;;;;;;5024232;28;20470;-75
2023/06/06 07:19:36;;;;;;;13.10;9.70;;;22.90;99.90;;;;;;5025283;28;20043;-75
2023/06/06 07:22:05;;;;;;;17.50;7.60;;;23.10;99.90;;;;;;5026458;28;20493;-76
2023/06/06 07:24:33;;;;;;;11.90;8.80;;;23.30;99.90;;;;;;5025817;28;20053;-76
2023/06/06 07:27:00;;;;;;;10.70;7.75;;;23.60;99.90;;;;;;5023998;28;20537;-76
2023/06/06 07:29:30;;;;;;;9.50;7.68;;;23.90;99.90;;;;;;5023336;28;20136;-77
2023/06/06 07:31:57;;;;;;;15.23;7.75;;;24.00;99.90;;;;;;5024886;28;20046;-75
2023/06/06 07:34:26;;;;;;;13.80;8.48;;;24.20;99.90;;;;;;5025670;28;20044;-77
2023/06/06 07:36:55;;;;;;;12.82;8.10;;;24.10;99.90;;;;;;5025158;28;20057;-75
2023/06/06 07:39:22;;;;;;;9.98;7.28;;;24.10;99.90;;;;;;5024087;28;20515;-75
2023/06/06 07:41:50;;;;;;;11.90;9.68;;;24.30;99.90;;;;;;5022716;28;20045;-76
2023/06/06 07:44:18;;;;;;;13.30;7.25;;;24.40;99.90;;;;;;5024915;28;20512;-76
2023/06/06 07:46:46;;;;;;;10.82;6.97;;;24.50;99.90;;;;;;5024114;28;20046;-75
2023/06/06 07:49:13;;;;;;;10.65;6.80;;;24.70;99.90;;;;;;5025379;28;20042;-76
2023/06/06 07:51:42;;;;;;;12.63;8.98;;;24.90;99.90;;;;;;5025059;28;20042;-75
2023/06/06 07:54:09;;;;;;;10.95;7.75;;;25.10;99.90;;;;;;5023242;28;20072;-76
2023/06/06 07:56:37;;;;;;;11.07;8.75;;;25.00;99.90;;;;;;5024157;28;20735;-76
2023/06/06 07:59:05;;;;;;;11.35;9.23;;;25.00;99.90;;;;;;5024141;28;20046;-76
2023/06/06 08:01:33;;;;;;;15.15;10.50;;;25.10;99.90;;;;;;5025339;28;20060;-77
2023/06/06 08:04:00;;;;;;;17.10;7.60;;;25.30;99.90;;;;;;5024306;28;20041;-77
2023/06/06 08:06:32;;;;;;;10.73;6.78;;;25.30;99.90;;;;;;5034107;28;20136;-76
2023/06/06 08:09:03;;;;;;;9.40;6.70;;;25.10;99.90;;;;;;5032520;28;20386;-76
2023/06/06 08:11:30;;;;;;;7.82;6.57;;;24.70;99.90;;;;;;5032345;28;20042;-77
2023/06/06 08:13:58;;;;;;;12.48;9.52;;;24.70;99.90;;;;;;5037708;28;20084;-75
2023/06/06 08:16:25;;;;;;;13.32;9.15;;;24.90;99.90;;;;;;5039223;28;20055;-76
2023/06/06 08:18:53;;;;;;;18.40;11.30;;;25.10;99.90;;;;;;5038168;28;20608;-77
2023/06/06 08:21:22;;;;;;;14.18;8.15;;;25.20;99.90;;;;;;5037943;28;20072;-76
2023/06/06 08:23:49;;;;;;;12.10;9.63;;;25.40;99.90;;;;;;5037496;28;20033;-78
2023/06/06 08:26:23;;;;;;;14.18;9.38;;;25.40;99.90;;;;;;5039132;28;20076;-76
2023/06/06 08:28:51;;;;;;;15.95;12.75;;;25.50;99.90;;;;;;5038299;28;20033;-76
2023/06/06 08:31:20;;;;;;;23.67;8.65;;;25.70;99.90;;;;;;5039837;28;20045;-76
2023/06/06 08:33:48;;;;;;;14.93;11.43;;;25.80;99.90;;;;;;5037737;28;20260;-76
2023/06/06 08:36:15;;;;;;;12.30;9.02;;;25.70;99.90;;;;;;5039122;28;20081;-76
2023/06/06 08:38:44;;;;;;;15.70;9.18;;;25.20;99.90;;;;;;5036783;28;20055;-75
2023/06/06 08:41:13;;;;;;;12.02;7.18;;;24.90;99.90;;;;;;5037191;28;20134;-76
2023/06/06 08:43:43;;;;;;;12.20;9.25;;;25.10;99.90;;;;;;5047232;28;20045;-76
2023/06/06 08:46:12;;;;;;;17.00;9.43;;;25.50;99.90;;;;;;5042313;28;20537;-78
2023/06/06 08:48:41;;;;;;;12.82;7.82;;;25.50;99.90;;;;;;5039887;28;20124;-78
2023/06/06 08:51:09;;;;;;;11.50;7.15;;;25.50;99.90;;;;;;5042445;28;20037;-76
2023/06/06 08:53:37;;;;;;;11.35;8.23;;;25.50;99.90;;;;;;5041109;28;20087;-77
2023/06/06 08:56:08;;;;;;;8.73;6.40;;;25.40;99.90;;;;;;5038673;28;20488;-77
2023/06/06 08:58:37;;;;;;;14.27;7.45;;;25.20;99.90;;;;;;5039926;28;20042;-77
2023/06/06 09:01:07;;;;;;;15.85;11.70;;;24.90;99.90;;;;;;5039741;28;20669;-76
2023/06/06 09:03:42;;;;;;;15.65;9.48;;;24.70;99.90;;;;;;5045144;28;20042;-76
2023/06/06 09:06:12;;;;;;;9.95;6.63;;;24.80;99.90;;;;;;5029076;28;20045;-75
2023/06/06 09:08:40;;;;;;;10.55;7.22;;;24.90;99.90;;;;;;5026932;28;20049;-75
2023/06/06 09:11:08;;;;;;;15.77;11.27;;;24.80;99.90;;;;;;5017555;28;20186;-76
2023/06/06 09:13:35;;;;;;;11.95;8.52;;;24.90;99.90;;;;;;5038837;28;20069;-77
2023/06/06 09:16:08;;;;;;;12.70;6.40;;;25.10;99.90;;;;;;5037799;28;20615;-77
2023/06/06 09:18:35;;;;;;;8.88;6.32;;;25.40;99.90;;;;;;5026337;28;20048;-76
2023/06/06 09:21:03;;;;;;;9.57;5.78;;;25.50;99.90;;;;;;5029168;28;20080;-78
2023/06/06 09:23:31;;;;;;;8.35;6.15;;;25.50;99.90;;;;;;5028584;28;20057;-78
2023/06/06 09:25:59;;;;;;;8.85;5.70;;;25.60;99.90;;;;;;5028386;28;20445;-77
2023/06/06 09:28:37;;;;;;;9.65;6.70;;;25.60;99.90;;;;;;5029730;28;20065;-76
2023/06/06 09:31:34;;;;;;;10.05;7.45;;;25.50;99.90;;;;;;5027237;28;20131;-77
2023/06/06 09:34:03;;;;;;;13.30;6.50;;;25.40;99.90;;;;;;5011130;28;20045;-78
2023/06/06 09:36:31;;;;;;;13.77;7.30;;;25.50;99.90;;;;;;5030673;28;20421;-77
2023/06/06 09:39:05;;;;;;;12.73;6.97;;;25.70;99.90;;;;;;5036596;28;20041;-77
2023/06/06 09:41:40;;;;;;;11.57;7.38;;;25.90;99.90;;;;;;5034683;28;20550;-77
2023/06/06 09:44:18;;;;;;;17.98;9.48;;;26.40;99.90;;;;;;5032820;28;20405;-76
2023/06/06 09:46:47;;;;;;;13.10;7.00;;;26.80;99.90;;;;;;5047502;28;20400;-75
2023/06/06 09:49:14;;;;;;;13.20;7.00;;;26.90;99.90;;;;;;5028368;28;20613;-75
2023/06/06 09:51:43;;;;;;;10.77;6.50;;;27.00;99.90;;;;;;5027161;28;20132;-76
2023/06/06 09:54:11;;;;;;;10.98;5.75;;;27.10;99.90;;;;;;5027365;28;20065;-77
2023/06/06 09:56:42;;;;;;;8.75;6.85;;;27.40;99.90;;;;;;5013721;28;20127;-76
2023/06/06 09:59:11;;;;;;;8.90;5.32;;;28.00;99.90;;;;;;5012030;28;20083;-76
2023/06/06 10:01:42;;;;;;;12.10;6.13;;;28.10;99.90;;;;;;5025860;28;20058;-76
2023/06/06 10:04:11;;;;;;;5.90;5.18;;;27.90;99.90;;;;;;5027134;28;20546;-75
2023/06/06 10:06:43;;;;;;;8.73;5.18;;;28.00;99.90;;;;;;5028800;28;20072;-75
2023/06/06 10:09:12;;;;;;;8.60;5.32;;;28.20;99.90;;;;;;5026739;28;20504;-76
2023/06/06 10:11:40;;;;;;;10.27;5.78;;;28.00;99.90;;;;;;5026292;28;20045;-76
2023/06/06 10:14:08;;;;;;;7.53;4.70;;;28.00;99.90;;;;;;5025889;28;20045;-77
2023/06/06 10:16:36;;;;;;;5.82;4.53;;;27.50;99.90;;;;;;5025676;28;20045;-76
2023/06/06 10:19:04;;;;;;;6.47;4.60;;;27.70;99.90;;;;;;5010256;28;20054;-75
2023/06/06 10:21:35;;;;;;;9.68;4.57;;;28.00;99.90;;;;;;5026108;28;20045;-74
2023/06/06 10:24:03;;;;;;;7.50;5.47;;;28.20;99.00;;;;;;5026379;28;20059;-76
2023/06/06 10:26:34;;;;;;;7.15;5.50;;;28.40;99.60;;;;;;5033904;28;20045;-79
2023/06/06 10:29:06;;;;;;;22.88;17.30;;;28.50;99.90;;;;;;5036386;28;20429;-84
2023/06/06 10:31:42;;;;;;;61.35;46.47;;;28.00;99.30;;;;;;5021519;28;20065;-83
2023/06/06 10:34:13;;;;;;;8.93;6.47;;;28.20;98.60;;;;;;5038670;28;20049;-83
2023/06/06 10:36:45;;;;;;;9.00;6.55;;;28.20;97.70;;;;;;5014037;28;20068;-83
2023/06/06 10:39:19;;;;;;;7.80;5.20;;;28.00;96.50;;;;;;5030047;28;20111;-77
2023/06/06 10:41:52;;;;;;;8.05;6.07;;;28.00;96.10;;;;;;5025133;28;20046;-78
2023/06/06 10:44:34;;;;;;;10.93;7.20;;;28.10;95.40;;;;;;5025108;28;20033;-77
2023/06/06 10:47:28;;;;;;;9.20;6.63;;;27.90;94.20;;;;;;5010195;28;20502;-78
2023/06/06 10:50:17;;;;;;;7.32;5.03;;;28.00;93.50;;;;;;5026391;28;20376;-77
2023/06/06 10:52:47;;;;;;;9.50;5.18;;;28.10;92.40;;;;;;5025746;28;20512;-77
2023/06/06 10:55:38;;;;;;;10.52;6.68;;;28.10;92.00;;;;;;5027069;28;20449;-77
2023/06/06 10:58:09;;;;;;;6.05;4.20;;;28.50;91.30;;;;;;5024761;28;20050;-78
2023/06/06 11:00:41;;;;;;;5.82;4.30;;;28.40;84.90;;;;;;5025446;28;20068;-77
2023/06/06 11:03:10;;;;;;;7.07;4.40;;;28.30;85.60;;;;;;5025796;28;20033;-78
2023/06/06 11:06:05;;;;;;;7.53;4.15;;;28.00;83.60;;;;;;5026078;28;20117;-76
2023/06/06 11:08:34;;;;;;;6.65;4.80;;;28.10;77.80;;;;;;5025994;28;20453;-77
2023/06/06 11:11:21;;;;;;;7.30;4.53;;;28.10;75.60;;;;;;5024658;28;20048;-78
2023/06/06 11:13:53;;;;;;;5.35;3.88;;;27.80;75.10;;;;;;5026569;28;20495;-77
2023/06/06 11:16:31;;;;;;;5.95;4.35;;;27.80;73.40;;;;;;5025669;28;20076;-75
2023/06/06 11:19:03;;;;;;;7.18;4.88;;;27.90;73.00;;;;;;5024339;28;20386;-77
2023/06/06 11:21:31;;;;;;;6.65;4.22;;;28.00;74.80;;;;;;5025485;28;20037;-78
2023/06/06 11:24:02;;;;;;;7.85;4.40;;;27.90;73.20;;;;;;5024276;28;20049;-76
2023/06/06 11:26:29;;;;;;;9.38;5.03;;;27.40;74.90;;;;;;5023265;28;20144;-79
2023/06/06 11:28:57;;;;;;;12.88;4.63;;;27.30;75.70;;;;;;5024160;28;20508;-77
2023/06/06 11:31:26;;;;;;;7.57;5.35;;;27.30;76.70;;;;;;5025706;28;20045;-77
2023/06/06 11:33:54;;;;;;;6.35;4.95;;;27.40;77.00;;;;;;5025137;28;20408;-76
2023/06/06 11:36:21;;;;;;;8.70;4.75;;;27.50;72.90;;;;;;5025908;28;20104;-79
2023/06/06 11:38:49;;;;;;;8.23;4.68;;;27.40;74.60;;;;;;5023506;28;20115;-78
2023/06/06 11:41:17;;;;;;;7.18;4.20;;;27.40;77.10;;;;;;5023365;28;20045;-77
2023/06/06 11:43:51;;;;;;;6.85;4.63;;;27.40;76.70;;;;;;5024309;28;20052;-78
2023/06/06 11:46:19;;;;;;;10.50;4.85;;;27.50;74.60;;;;;;5025613;28;20116;-78
2023/06/06 11:48:46;;;;;;;8.57;6.10;;;27.60;74.50;;;;;;5026926;28;20397;-77
2023/06/06 11:51:14;;;;;;;7.30;5.18;;;27.70;76.70;;;;;;5024973;28;20413;-78
2023/06/06 11:53:42;;;;;;;6.13;4.65;;;27.80;72.70;;;;;;5024314;28;20509;-78
2023/06/06 11:56:15;;;;;;;6.38;4.20;;;27.70;72.50;;;;;;5029098;28;20068;-78
2023/06/06 11:58:45;;;;;;;7.88;5.90;;;27.70;75.60;;;;;;5028760;28;20049;-77
2023/06/06 12:01:15;;;;;;;6.47;4.15;;;27.60;75.50;;;;;;5029879;28;20064;-76
2023/06/06 12:03:44;;;;;;;7.28;5.00;;;27.30;77.80;;;;;;5029313;28;20045;-77
2023/06/06 12:06:11;;;;;;;6.90;4.65;;;27.30;78.10;;;;;;5000385;28;20409;-77
2023/06/06 12:08:39;;;;;;;7.95;5.30;;;27.00;78.70;;;;;;5009531;28;20065;-76
2023/06/06 12:11:26;;;;;;;7.90;4.80;;;27.00;80.90;;;;;;5009786;28;20049;-77
2023/06/06 12:13:55;;;;;;;7.70;5.30;;;27.00;81.30;;;;;;5009745;28;20045;-76
2023/06/06 12:16:23;;;;;;;7.10;4.43;;;26.60;82.60;;;;;;5011350;28;20034;-76
2023/06/06 12:18:51;;;;;;;7.22;4.80;;;26.80;83.30;;;;;;5007639;28;20057;-76
2023/06/06 12:21:19;;;;;;;6.28;4.45;;;26.80;85.00;;;;;;5009590;28;20077;-77
2023/06/06 12:23:48;;;;;;;10.82;8.00;;;27.00;86.10;;;;;;5009668;28;20080;-77
2023/06/06 12:26:16;;;;;;;6.60;4.75;;;27.10;85.90;;;;;;5010075;28;20045;-76
2023/06/06 12:28:59;;;;;;;5.82;4.45;;;27.20;87.10;;;;;;4993805;28;20045;-76
2023/06/06 12:31:30;;;;;;;7.40;5.00;;;27.70;83.90;;;;;;5011186;28;20065;-78
2023/06/06 12:33:58;;;;;;;6.30;4.57;;;27.80;81.70;;;;;;5010043;28;20529;-76
2023/06/06 12:36:26;;;;;;;9.52;5.10;;;27.70;80.50;;;;;;5008555;28;20046;-76
2023/06/06 12:39:00;;;;;;;6.60;4.85;;;27.60;82.10;;;;;;5009662;28;20042;-77
2023/06/06 12:41:41;;;;;;;11.27;7.18;;;27.30;83.50;;;;;;5010111;28;20048;-77
2023/06/06 12:44:12;;;;;;;7.85;5.68;;;27.20;80.20;;;;;;4993889;28;20129;-77